If you wish to contribute or participate in the discussions about articles you are invited to join SKYbrary as a registered user

 Actions

Amman/Queen Alia International

From SKYbrary Wiki

OJAI
Airport
ICAO: OJAI
Summary
Name Amman/Queen Alia International
Region Middle East
Territory Jordan JO.gif
Location Amman/Queen International, Jordan
Serving
Coordinates 31° 43' 24", 35° 59' 36"
Runways
Designator Length Width Surface ROPS
08L/26R 3660 m12,007.874 ft 61 m200.131 ft ASP yes/yes
08R/26L 3660 m12,007.874 ft 61 m200.131 ft CON yes/yes
METAR
Observation OJAI 120200Z 06008KT CAVOK 09/M07 Q1025 NOSIG
Station Queen Alia Airport
Date/Time 12 December 2017 02:00:00
Wind direction 60°
Wind speed 08 kts
Lowest cloud amount clouds and visibility OK
Temperature 9°C
Dew point
Humidity 31%
QNH 1025 hPa
Weather condition n/a


Amman/Queen Alia International Airport

ICAO: OJAI IATA: AMM

Description

Principal international airport serving Amman.

Climatology

Dry-summer subtropical ”Mediterranean" climate (Köppen climate classification Csa) - characterized by hot, dry summers and mild winters. During the summer, subtropical high pressure cells dominate, making rainfall unlikely except for the occasional thunderstorm. In the winter, periodic storms bring rain.

Maps

Terrain

Loading map...

Airport Layout

Loading map...


Accidents & Serious Incidents at or in vicinity of OJAI

None on SKYbrary